Time;durP1;ratioP1;P1;durP2;ratioP2;P2;SDS_P1;SDS_P2;PMS_P1;PMS_P2;Temp;Humidity;BMP_temperature;BMP_pressure;BME280_temperature;BME280_humidity;BME280_pressure;Samples;Min_cycle;Max_cycle;Signal;HPM_P1;HPM_P2
2023/05/16 00:01:28;;;;;;;6.30;4.15;;;;;;;17.99;57.12;98633.19;4922973;29;20206;-78
2023/05/16 00:03:57;;;;;;;6.95;3.92;;;;;;;17.97;57.07;98624.63;4923182;29;20047;-78
2023/05/16 00:06:22;;;;;;;;;;;;;;;17.96;57.23;98619.50;4956523;29;20039;-78
2023/05/16 00:08:48;;;;;;;5.93;3.80;;;;;;;17.92;57.16;98615.53;4954127;29;19921;-78
2023/05/16 00:11:16;;;;;;;8.38;4.30;;;;;;;17.84;57.14;98608.44;4922678;28;20070;-82
2023/05/16 00:13:41;;;;;;;8.25;4.00;;;;;;;17.89;57.22;98617.53;4922663;29;20431;-78
2023/05/16 00:16:07;;;;;;;6.28;4.07;;;;;;;17.87;57.18;98616.84;4938372;29;20055;-78
2023/05/16 00:18:36;;;;;;;6.38;4.18;;;;;;;17.88;57.23;98618.53;4938641;29;20035;-78
2023/05/16 00:21:03;;;;;;;5.07;4.05;;;;;;;17.86;57.20;98617.03;4937823;29;20054;-78
2023/05/16 00:23:29;;;;;;;6.95;3.90;;;;;;;17.83;57.17;98620.81;4938674;29;20498;-78
2023/05/16 00:25:55;;;;;;;6.78;3.63;;;;;;;17.84;57.13;98622.47;4922166;29;20114;-79
2023/05/16 00:28:20;;;;;;;5.72;4.10;;;;;;;17.82;57.11;98621.81;4938784;29;20171;-78
2023/05/16 00:30:46;;;;;;;6.85;4.10;;;;;;;17.85;57.21;98618.00;4938484;29;20043;-78
2023/05/16 00:33:12;;;;;;;5.55;3.90;;;;;;;17.82;57.24;98623.63;4922459;29;20501;-82
2023/05/16 00:35:37;;;;;;;10.77;3.90;;;;;;;17.81;57.02;98620.16;4922578;29;20035;-82
2023/05/16 00:38:03;;;;;;;5.30;3.67;;;;;;;17.83;57.08;98618.16;4922505;29;20035;-82
2023/05/16 00:40:28;;;;;;;5.43;3.60;;;;;;;17.83;56.91;98617.34;4938062;29;20059;-82
2023/05/16 00:42:54;;;;;;;8.25;4.13;;;;;;;17.84;56.96;98626.94;4922321;29;20039;-83
2023/05/16 00:45:19;;;;;;;5.88;3.70;;;;;;;17.86;57.00;98632.88;4938225;29;20101;-83
2023/05/16 00:47:45;;;;;;;5.68;3.85;;;;;;;17.84;56.78;98629.56;4955474;29;20067;-82
2023/05/16 00:50:10;;;;;;;5.78;3.33;;;;;;;17.81;56.70;98628.06;4921777;29;20043;-82
2023/05/16 00:52:36;;;;;;;5.43;3.70;;;;;;;17.83;56.83;98626.09;4921667;29;20491;-82
2023/05/16 00:55:02;;;;;;;7.05;3.65;;;;;;;17.82;56.65;98629.75;4922322;29;20063;-82
2023/05/16 00:57:28;;;;;;;6.97;3.42;;;;;;;17.82;56.52;98634.16;4922458;29;20040;-83
2023/05/16 00:59:53;;;;;;;4.93;3.45;;;;;;;17.80;56.55;98615.84;4937118;29;20058;-82
2023/05/16 01:02:19;;;;;;;4.82;3.40;;;;;;;17.82;56.72;98613.06;4954826;29;20046;-83
2023/05/16 01:04:44;;;;;;;5.90;3.90;;;;;;;17.77;56.62;98610.91;4921994;29;20047;-82
2023/05/16 01:07:10;;;;;;;6.40;3.55;;;;;;;17.74;56.65;98605.97;4922026;29;20042;-82
2023/05/16 01:09:36;;;;;;;5.13;3.83;;;;;;;17.78;56.66;98607.28;4937454;29;20079;-82
2023/05/16 01:12:07;;;;;;;5.65;3.63;;;;;;;17.74;56.63;98603.31;4922333;29;20454;-81
2023/05/16 01:14:51;;;;;;;8.30;3.58;;;;;;;17.75;56.80;98599.69;4937647;29;20075;-83
2023/05/16 01:17:19;;;;;;;6.03;3.80;;;;;;;17.74;56.57;98611.25;4954577;29;20055;-79
2023/05/16 01:20:15;;;;;;;5.57;3.50;;;;;;;17.74;56.50;98616.50;4954700;29;20027;-78
2023/05/16 01:22:50;;;;;;;4.47;3.22;;;;;;;17.73;56.57;98617.53;4954584;28;20045;-79
2023/05/16 01:25:37;;;;;;;5.60;3.42;;;;;;;17.74;56.60;98598.03;4937219;29;20035;-79
2023/05/16 01:28:02;;;;;;;7.45;3.40;;;;;;;17.71;56.47;98604.50;4954869;29;20053;-79
2023/05/16 01:30:32;;;;;;;4.25;3.35;;;;;;;17.72;56.42;98616.69;4921515;29;20048;-80
2023/05/16 01:32:57;;;;;;;6.13;3.47;;;;;;;17.71;56.53;98612.41;4922258;29;20035;-82
2023/05/16 01:35:24;;;;;;;4.70;3.63;;;;;;;17.70;56.42;98608.13;4921888;29;20098;-79
2023/05/16 01:38:31;;;;;;;5.70;3.20;;;;;;;17.69;56.52;98606.44;4921482;29;20079;-80
2023/05/16 01:41:28;;;;;;;4.90;3.13;;;;;;;17.68;56.60;98604.81;4876641;29;20041;-79
2023/05/16 01:44:00;;;;;;;5.03;3.20;;;;;;;17.68;56.42;98598.72;4860167;29;20101;-81
2023/05/16 01:46:28;;;;;;;4.95;3.55;;;;;;;17.68;56.60;98610.09;4846499;29;20037;-81
2023/05/16 01:48:59;;;;;;;4.50;3.00;;;;;;;17.68;56.51;98596.91;4846259;29;20417;-79
2023/05/16 01:51:27;;;;;;;3.97;2.95;;;;;;;17.61;56.53;98587.19;4876377;29;20086;-82
2023/05/16 01:53:52;;;;;;;6.95;3.45;;;;;;;17.65;56.57;98599.88;4845854;29;20108;-79
2023/05/16 01:56:18;;;;;;;4.80;2.95;;;;;;;17.65;56.72;98594.59;4845816;29;20037;-81
2023/05/16 01:58:43;;;;;;;5.90;3.40;;;;;;;17.64;56.60;98592.13;4845855;29;20049;-87
2023/05/16 02:01:09;;;;;;;4.28;3.10;;;;;;;17.60;56.45;98585.50;4860973;29;20080;-81
2023/05/16 02:03:34;;;;;;;4.72;3.10;;;;;;;17.63;56.60;98593.09;4861166;29;20136;-80
2023/05/16 02:06:00;;;;;;;4.82;3.30;;;;;;;17.62;56.67;98583.56;4846272;29;20057;-82
2023/05/16 02:08:26;;;;;;;4.90;2.90;;;;;;;17.60;56.85;98583.72;4861322;29;20081;-80
2023/05/16 02:10:52;;;;;;;4.45;2.90;;;;;;;17.59;56.66;98576.78;4861103;29;20048;-80
2023/05/16 02:13:18;;;;;;;8.23;3.30;;;;;;;17.57;56.88;98570.84;4876397;29;20041;-80
2023/05/16 02:15:43;;;;;;;4.97;3.00;;;;;;;17.53;56.74;98564.25;4941452;29;20134;-81
2023/05/16 02:18:09;;;;;;;8.85;3.45;;;;;;;17.46;56.83;98550.09;4921235;29;20035;-81
2023/05/16 02:20:35;;;;;;;7.15;3.20;;;;;;;17.47;56.78;98559.63;4954208;29;20073;-81
2023/05/16 02:23:02;;;;;;;5.30;3.22;;;;;;;17.51;56.80;98564.41;4954125;28;20103;-80
2023/05/16 02:25:28;;;;;;;5.22;3.35;;;;;;;17.53;56.95;98566.88;4954122;29;20038;-82
2023/05/16 02:27:53;;;;;;;5.35;3.45;;;;;;;17.47;56.91;98557.84;4936955;29;20039;-80
2023/05/16 02:30:19;;;;;;;6.80;3.45;;;;;;;17.50;56.99;98567.22;4921505;29;20062;-81
2023/05/16 02:32:44;;;;;;;5.70;2.90;;;;;;;17.47;56.87;98565.75;4936761;28;20051;-81
2023/05/16 02:35:10;;;;;;;4.35;3.10;;;;;;;17.47;56.92;98560.47;4937023;29;20031;-80
2023/05/16 02:37:36;;;;;;;4.15;3.17;;;;;;;17.43;56.99;98553.88;4936794;29;20047;-81
2023/05/16 02:40:04;;;;;;;4.93;3.08;;;;;;;17.44;57.00;98552.88;4936792;29;20078;-82
2023/05/16 02:42:30;;;;;;;;;;;;;;;17.45;56.87;98554.50;4937485;29;20046;-80
2023/05/16 02:44:56;;;;;;;5.65;3.20;;;;;;;17.39;57.09;98555.16;4936721;29;20437;-82
2023/05/16 02:47:22;;;;;;;5.63;3.03;;;;;;;17.42;57.17;98554.84;4953717;28;20039;-80
2023/05/16 02:49:47;;;;;;;5.68;3.10;;;;;;;17.40;57.06;98548.09;4921806;29;20047;-82
2023/05/16 02:52:13;;;;;;;6.68;3.20;;;;;;;17.37;56.97;98536.06;4940571;29;20035;-82
2023/05/16 02:54:38;;;;;;;8.13;3.40;;;;;;;17.40;57.17;98543.63;4924657;29;20122;-82
2023/05/16 02:57:04;;;;;;;7.53;3.17;;;;;;;17.39;57.16;98544.63;4957296;29;20035;-81
2023/05/16 02:59:29;;;;;;;6.72;3.10;;;;;;;17.39;57.11;98534.06;4957823;28;20054;-81
2023/05/16 03:01:55;;;;;;;6.82;3.13;;;;;;;17.38;57.12;98528.94;4924729;29;20043;-81
2023/05/16 03:04:21;;;;;;;7.93;3.10;;;;;;;17.36;56.93;98535.25;4940249;28;20043;-80
2023/05/16 03:06:47;;;;;;;4.28;3.20;;;;;;;17.40;56.92;98530.44;4924792;29;20039;-81
2023/05/16 03:09:12;;;;;;;4.13;2.88;;;;;;;17.41;56.91;98520.72;4939847;29;20039;-81
2023/05/16 03:11:38;;;;;;;5.70;3.45;;;;;;;17.40;57.00;98513.81;4957265;28;20032;-83
2023/05/16 03:14:04;;;;;;;7.88;3.55;;;;;;;17.41;56.81;98518.91;4956978;29;20110;-83
2023/05/16 03:16:30;;;;;;;5.55;3.20;;;;;;;17.38;56.93;98511.31;4936188;29;20060;-82
2023/05/16 03:18:55;;;;;;;6.28;3.47;;;;;;;17.42;57.00;98520.53;4936111;29;20384;-82
2023/05/16 03:21:21;;;;;;;4.63;3.42;;;;;;;17.41;57.07;98524.19;4937969;29;20035;-83
2023/05/16 03:23:46;;;;;;;7.20;3.30;;;;;;;17.43;56.98;98527.47;4936050;29;20044;-82
2023/05/16 03:26:12;;;;;;;7.70;3.30;;;;;;;17.40;56.70;98530.44;4935965;29;20044;-83
2023/05/16 03:28:38;;;;;;;4.40;3.03;;;;;;;17.46;56.73;98542.97;4936477;29;20114;-81
2023/05/16 03:31:03;;;;;;;5.93;3.63;;;;;;;17.48;56.86;98540.19;4920827;29;20115;-83
2023/05/16 03:33:34;;;;;;;5.30;3.28;;;;;;;17.51;56.75;98547.75;4937534;29;20082;-80
2023/05/16 03:35:59;;;;;;;5.53;3.30;;;;;;;17.53;56.48;98541.31;4937303;29;20044;-82
2023/05/16 03:38:25;;;;;;;5.88;3.42;;;;;;;17.59;56.34;98546.94;4936238;29;20510;-82
2023/05/16 03:40:51;;;;;;;7.13;3.15;;;;;;;17.61;56.27;98547.59;4936112;29;20047;-80
2023/05/16 03:43:16;;;;;;;4.32;3.05;;;;;;;17.67;56.18;98549.56;4904337;29;20107;-80
2023/05/16 03:45:42;;;;;;;5.53;3.42;;;;;;;17.72;56.26;98552.50;4935936;29;20035;-81
2023/05/16 03:48:08;;;;;;;4.57;3.40;;;;;;;17.76;56.07;98545.91;4935978;29;20042;-82
2023/05/16 03:50:36;;;;;;;6.00;3.20;;;;;;;17.83;55.94;98544.25;4936342;29;20460;-78
2023/05/16 03:53:02;;;;;;;6.60;2.25;;;;;;;18.07;60.76;98546.03;4920283;29;20110;-73
2023/05/16 03:55:29;;;;;;;5.05;3.00;;;;;;;18.22;59.48;98543.50;4936993;29;20046;-79
2023/05/16 03:57:55;;;;;;;7.85;2.80;;;;;;;18.46;60.39;98541.75;4920672;29;20048;-87
2023/05/16 04:00:20;;;;;;;8.23;2.90;;;;;;;18.61;58.85;98552.41;4936635;29;20114;-82
2023/05/16 04:02:46;;;;;;;8.73;2.95;;;;;;;18.66;57.99;98543.97;4935020;29;20099;-81
2023/05/16 04:05:12;;;;;;;4.47;2.70;;;;;;;18.78;57.18;98558.44;4935853;29;20122;-80
2023/05/16 04:07:38;;;;;;;6.55;3.00;;;;;;;18.86;56.52;98560.25;4936611;29;20046;-85
2023/05/16 04:10:04;;;;;;;3.63;2.70;;;;;;;18.87;56.16;98562.72;4919361;29;20036;-78
2023/05/16 04:12:30;;;;;;;6.43;3.17;;;;;;;18.97;55.73;98558.00;4935233;29;20641;-74
2023/05/16 04:14:55;;;;;;;7.70;3.10;;;;;;;19.06;55.20;98552.69;4934614;29;20068;-75
2023/05/16 04:17:21;;;;;;;5.63;3.08;;;;;;;19.14;54.76;98548.16;4934423;29;20059;-75
2023/05/16 04:19:46;;;;;;;7.60;3.28;;;;;;;19.25;54.26;98554.03;4919254;29;20040;-76
2023/05/16 04:22:12;;;;;;;6.25;3.42;;;;;;;19.33;53.83;98546.84;4935275;29;20047;-77
2023/05/16 04:24:37;;;;;;;4.68;3.20;;;;;;;19.45;53.32;98555.19;4934528;29;20134;-75
2023/05/16 04:27:03;;;;;;;4.47;3.25;;;;;;;19.58;52.83;98559.06;4919114;29;20044;-76
2023/05/16 04:29:30;;;;;;;6.65;3.53;;;;;;;19.63;52.34;98557.50;4919212;29;20190;-76
2023/05/16 04:31:55;;;;;;;6.40;3.53;;;;;;;19.79;51.87;98563.69;4934472;29;20396;-75
2023/05/16 04:34:22;;;;;;;9.43;3.72;;;;;;;19.94;51.49;98566.34;4935969;29;20043;-76
2023/05/16 04:36:47;;;;;;;9.25;3.53;;;;;;;20.05;50.96;98574.69;4934999;29;20028;-76
2023/05/16 04:39:13;;;;;;;6.35;3.55;;;;;;;20.14;50.66;98561.34;4919064;29;20050;-76
2023/05/16 04:41:38;;;;;;;9.65;3.50;;;;;;;20.23;50.34;98566.34;4934742;29;20067;-76
2023/05/16 04:44:04;;;;;;;16.77;3.67;;;;;;;20.32;49.77;98558.31;4918436;29;20419;-76
2023/05/16 04:46:30;;;;;;;9.68;4.05;;;;;;;20.40;49.50;98560.88;4934589;29;20075;-75
2023/05/16 04:48:55;;;;;;;12.10;3.95;;;;;;;20.61;49.15;98558.28;4934599;29;20039;-76
2023/05/16 04:51:21;;;;;;;6.95;3.80;;;;;;;20.67;48.59;98561.22;4918731;29;20046;-76
2023/05/16 04:53:46;;;;;;;7.65;3.78;;;;;;;20.70;48.55;98559.03;4935096;29;20047;-76
2023/05/16 04:56:12;;;;;;;8.00;3.67;;;;;;;20.69;48.55;98552.06;4934666;29;20039;-76
2023/05/16 04:58:37;;;;;;;10.02;4.05;;;;;;;20.73;48.10;98550.69;4934412;29;20514;-75
2023/05/16 05:01:04;;;;;;;8.30;4.10;;;;;;;20.81;48.14;98546.28;4935794;29;20071;-78
2023/05/16 05:03:30;;;;;;;10.07;4.05;;;;;;;20.79;47.70;98546.44;4918739;29;20071;-78
2023/05/16 05:05:56;;;;;;;10.55;4.50;;;;;;;20.82;47.65;98547.91;4935456;29;20118;-77
2023/05/16 05:08:21;;;;;;;12.63;4.28;;;;;;;20.91;47.23;98557.41;4918974;29;20050;-78
2023/05/16 05:10:50;;;;;;;11.70;3.90;;;;;;;20.99;47.13;98546.66;4934447;29;20126;-80
2023/05/16 05:13:17;;;;;;;19.27;5.07;;;;;;;21.15;46.50;98546.41;4933813;29;20396;-77
2023/05/16 05:15:43;;;;;;;11.93;4.32;;;;;;;21.30;46.21;98550.81;4921555;29;20059;-77
2023/05/16 05:18:09;;;;;;;13.93;4.78;;;;;;;21.41;45.52;98550.34;4922128;29;20039;-78
2023/05/16 05:20:34;;;;;;;13.80;4.70;;;;;;;21.61;45.10;98557.66;4922048;29;20039;-77
2023/05/16 05:23:00;;;;;;;12.48;4.70;;;;;;;21.77;44.70;98557.38;4922262;29;20130;-78
2023/05/16 05:25:25;;;;;;;11.35;5.30;;;;;;;22.12;44.02;98568.00;4921938;29;20451;-78
2023/05/16 05:27:53;;;;;;;12.63;5.22;;;;;;;22.51;42.94;98568.44;4921270;29;20040;-79
2023/05/16 05:30:23;;;;;;;21.10;4.95;;;;;;;22.75;42.38;98562.59;4938337;29;20035;-79
2023/05/16 05:32:49;;;;;;;15.75;5.32;;;;;;;22.91;41.76;98563.25;4922436;29;20067;-77
2023/05/16 05:35:16;;;;;;;23.40;5.47;;;;;;;22.93;41.67;98551.41;4937958;29;20074;-78
2023/05/16 05:37:43;;;;;;;27.17;5.72;;;;;;;23.14;41.29;98557.59;4937911;29;20487;-76
2023/05/16 05:40:08;;;;;;;12.23;4.90;;;;;;;23.25;40.68;98556.19;4937914;29;20047;-80
2023/05/16 05:42:35;;;;;;;11.23;5.43;;;;;;;23.24;40.88;98555.34;4921824;29;20050;-78
2023/05/16 05:45:01;;;;;;;11.52;5.70;;;;;;;23.43;40.46;98566.22;4954497;29;20087;-77
2023/05/16 05:47:28;;;;;;;8.15;4.97;;;;;;;23.76;39.82;98568.88;4929268;28;20055;-78
2023/05/16 05:49:53;;;;;;;13.98;5.35;;;;;;;24.08;38.96;98560.25;4940693;28;20121;-78
2023/05/16 05:52:20;;;;;;;20.88;5.50;;;;;;;24.25;38.39;98555.28;4923563;28;20039;-79
2023/05/16 05:54:47;;;;;;;16.70;5.47;;;;;;;24.32;38.53;98561.41;4938703;28;20068;-79
2023/05/16 05:57:13;;;;;;;10.83;4.70;;;;;;;24.51;37.94;98559.69;4955882;28;20045;-80
2023/05/16 05:59:45;;;;;;;11.82;5.13;;;;;;;25.48;36.04;98548.91;4940823;28;20043;-81
2023/05/16 06:02:33;;;;;;;17.50;5.03;;;;;;;26.83;34.08;98555.28;4942482;28;20125;-82
2023/05/16 06:05:00;;;;;;;12.25;4.68;;;;;;;28.11;32.10;98557.59;4959642;28;20046;-79
2023/05/16 06:07:25;;;;;;;14.98;5.10;;;;;;;29.11;30.90;98557.41;4957177;28;20034;-78
2023/05/16 06:09:52;;;;;;;17.15;6.30;;;;;;;29.98;29.17;98555.28;4925313;28;20054;-82
2023/05/16 06:12:18;;;;;;;26.55;6.38;;;;;;;30.85;28.18;98555.53;4958520;28;20042;-87
2023/05/16 06:14:45;;;;;;;24.17;5.65;;;;;;;31.50;27.28;98551.03;4975421;28;20078;-81
2023/05/16 06:17:10;;;;;;;21.77;5.00;;;;;;;32.18;26.44;98555.81;4957498;28;20054;-84
2023/05/16 06:19:36;;;;;;;16.67;5.53;;;;;;;32.77;25.76;98548.47;4958645;28;20050;-84
2023/05/16 06:22:02;;;;;;;16.65;5.00;;;;;;;33.23;24.89;98548.56;4941556;28;20047;-80
2023/05/16 06:24:28;;;;;;;13.77;4.55;;;;;;;33.74;24.44;98545.00;4975166;28;20086;-84
2023/05/16 06:26:54;;;;;;;13.60;4.20;;;;;;;34.23;23.92;98544.34;4961691;28;20047;-81
2023/05/16 06:29:20;;;;;;;17.65;3.78;;;;;;;34.70;23.13;98539.50;4929334;28;20114;-82
2023/05/16 06:31:46;;;;;;;18.63;3.70;;;;;;;34.00;23.98;98531.41;4945129;28;20077;-81
2023/05/16 06:34:13;;;;;;;11.35;3.20;;;;;;;33.97;25.08;98530.06;4950541;28;20474;-78
2023/05/16 06:36:39;;;;;;;10.75;3.20;;;;;;;33.85;25.08;98541.19;4960959;28;20039;-77
2023/05/16 06:39:17;;;;;;;16.55;2.78;;;;;;;33.21;26.35;98552.59;4943927;28;20509;-82
2023/05/16 06:41:43;;;;;;;13.25;2.72;;;;;;;33.23;26.82;98553.16;4977171;28;20113;-78
2023/05/16 06:44:08;;;;;;;15.65;2.85;;;;;;;33.27;26.15;98544.25;4943389;28;20086;-77
2023/05/16 06:46:34;;;;;;;9.98;2.50;;;;;;;32.88;26.61;98547.41;4943819;28;20506;-79
2023/05/16 06:48:59;;;;;;;9.27;2.88;;;;;;;32.39;27.68;98542.41;4959637;28;20482;-79
2023/05/16 06:51:25;;;;;;;6.22;2.30;;;;;;;31.83;28.48;98546.41;4927898;28;20042;-79
2023/05/16 06:53:50;;;;;;;12.80;3.22;;;;;;;31.55;28.60;98531.41;4943534;28;20041;-77
2023/05/16 06:56:16;;;;;;;10.20;3.08;;;;;;;30.95;29.51;98536.00;4927718;28;20569;-80
2023/05/16 06:58:42;;;;;;;12.05;2.42;;;;;;;30.37;31.26;98530.22;4943298;28;20043;-77
2023/05/16 07:01:07;;;;;;;13.23;3.08;;;;;;;29.80;31.96;98524.13;4943170;28;20045;-76
2023/05/16 07:03:33;;;;;;;14.98;3.13;;;;;;;29.35;32.77;98522.34;4928157;28;20034;-84
2023/05/16 07:06:01;;;;;;;14.02;3.40;;;;;;;29.02;32.99;98515.88;4958619;28;20034;-89
2023/05/16 07:08:27;;;;;;;10.90;3.30;;;;;;;28.78;33.59;98521.38;4968502;28;20391;-79
2023/05/16 07:10:53;;;;;;;10.10;3.40;;;;;;;28.54;33.81;98519.81;4978401;28;20041;-81
2023/05/16 07:13:19;;;;;;;12.20;3.83;;;;;;;28.30;34.25;98534.09;4947963;28;20030;-85
2023/05/16 07:15:45;;;;;;;19.50;4.68;;;;;;;28.10;34.83;98522.94;4962089;28;20118;-83
2023/05/16 07:18:10;;;;;;;19.45;4.85;;;;;;;27.87;35.12;98523.78;4948640;28;20419;-85
2023/05/16 07:20:36;;;;;;;12.20;4.53;;;;;;;27.70;35.59;98518.31;4977578;28;20043;-84
2023/05/16 07:23:02;;;;;;;13.98;4.88;;;;;;;27.60;35.61;98518.91;4961146;28;20170;-78
2023/05/16 07:25:28;;;;;;;18.98;4.60;;;;;;;27.53;35.97;98521.72;4963732;28;20062;-89
2023/05/16 07:27:53;;;;;;;13.13;3.83;;;;;;;27.42;36.02;98519.81;4962856;28;20039;-91
2023/05/16 07:30:20;;;;;;;12.32;3.97;;;;;;;27.33;35.63;98521.22;4950528;28;20050;-90
2023/05/16 07:32:46;;;;;;;17.90;3.70;;;;;;;27.28;35.43;98503.13;4979457;28;20054;-90
2023/05/16 07:35:12;;;;;;;12.18;3.78;;;;;;;27.23;35.79;98502.97;4948809;28;20031;-91
2023/05/16 07:37:40;;;;;;;12.50;3.55;;;;;;;27.12;35.77;98504.63;4957523;28;20051;-80
2023/05/16 07:40:07;;;;;;;10.75;3.92;;;;;;;26.98;36.03;98485.25;4964238;28;20074;-75
2023/05/16 07:42:34;;;;;;;7.45;3.50;;;;;;;26.81;36.38;98474.38;4926465;28;20043;-77
2023/05/16 07:45:05;;;;;;;16.27;3.78;;;;;;;26.73;36.06;98474.72;4942567;28;20043;-76
2023/05/16 07:47:31;;;;;;;9.38;3.42;;;;;;;26.59;36.33;98483.94;4975810;28;20057;-71
2023/05/16 07:49:56;;;;;;;10.93;3.92;;;;;;;26.47;37.48;98476.69;4926185;28;20507;-71
2023/05/16 07:52:22;;;;;;;12.02;4.22;;;;;;;26.36;37.40;98504.19;4975793;28;20046;-71
2023/05/16 07:54:47;;;;;;;13.70;4.35;;;;;;;26.29;37.69;98493.59;4941783;28;20043;-70
2023/05/16 07:57:14;;;;;;;16.98;4.10;;;;;;;26.21;38.18;98485.06;4942123;28;20567;-69
2023/05/16 07:59:39;;;;;;;10.52;3.85;;;;;;;26.13;38.29;98478.16;4942257;28;20117;-73
2023/05/16 08:02:05;;;;;;;8.00;4.13;;;;;;;25.91;38.52;98485.78;4942321;28;20061;-74
2023/05/16 08:04:30;;;;;;;12.50;3.90;;;;;;;25.82;38.86;98486.09;4926351;28;20050;-71
2023/05/16 08:06:56;;;;;;;12.25;4.47;;;;;;;25.72;39.88;98479.63;4958400;28;20043;-73
2023/05/16 08:09:21;;;;;;;17.70;4.90;;;;;;;25.60;42.16;98476.84;4942656;28;20034;-70
2023/05/16 08:11:47;;;;;;;13.15;4.88;;;;;;;25.58;41.98;98484.28;4958037;28;20046;-72
2023/05/16 08:14:12;;;;;;;48.80;12.52;;;;;;;25.59;41.70;98483.25;4941662;28;20055;-71
2023/05/16 08:16:38;;;;;;;61.67;17.05;;;;;;;25.57;40.58;98485.28;4975032;28;20078;-73
2023/05/16 08:19:03;;;;;;;81.38;18.92;;;;;;;25.58;40.51;98476.25;4941448;28;20121;-73
2023/05/16 08:21:30;;;;;;;75.07;18.38;;;;;;;25.63;40.08;98482.59;4957611;28;20043;-73
2023/05/16 08:23:56;;;;;;;71.88;16.95;;;;;;;25.59;39.76;98494.75;4942074;28;20467;-72
2023/05/16 08:26:21;;;;;;;68.65;16.35;;;;;;;25.53;39.77;98479.59;4940335;28;20035;-74
2023/05/16 08:28:47;;;;;;;54.15;14.95;;;;;;;25.54;39.77;98491.91;4925572;28;20034;-72
2023/05/16 08:31:13;;;;;;;54.72;15.02;;;;;;;25.51;39.21;98504.88;4957484;28;20049;-73
2023/05/16 08:33:38;;;;;;;41.40;11.82;;;;;;;25.50;39.12;98488.03;4941143;28;20035;-73
2023/05/16 08:36:05;;;;;;;32.38;10.15;;;;;;;25.51;38.82;98484.34;4925259;28;20058;-72
2023/05/16 08:38:30;;;;;;;37.47;9.75;;;;;;;25.47;39.01;98491.16;4957197;28;20063;-72
2023/05/16 08:40:56;;;;;;;29.15;8.57;;;;;;;25.48;38.63;98476.75;4925385;28;20039;-73
2023/05/16 08:43:21;;;;;;;27.65;8.73;;;;;;;25.48;39.06;98483.97;4941433;28;20524;-72
2023/05/16 08:45:47;;;;;;;24.35;7.80;;;;;;;25.38;39.10;98455.91;4941297;28;20035;-72
2023/05/16 08:48:12;;;;;;;24.52;7.65;;;;;;;25.36;39.08;98457.13;4956869;28;20045;-72
2023/05/16 08:50:38;;;;;;;19.42;7.13;;;;;;;25.32;39.07;98466.63;4940758;28;20042;-72
2023/05/16 08:53:07;;;;;;;19.17;6.65;;;;;;;25.32;39.13;98485.31;4941211;28;20110;-71
2023/05/16 08:55:33;;;;;;;20.25;6.45;;;;;;;25.31;39.35;98481.84;4941366;28;20445;-71
2023/05/16 08:57:58;;;;;;;14.85;5.07;;;;;;;25.33;38.95;98471.75;4925205;28;20062;-74
2023/05/16 09:00:24;;;;;;;19.52;5.57;;;;;;;25.32;39.18;98458.59;4941039;28;20414;-72
2023/05/16 09:02:49;;;;;;;12.32;5.07;;;;;;;25.31;38.76;98473.00;4941031;28;20039;-71
2023/05/16 09:05:16;;;;;;;10.13;4.55;;;;;;;25.31;38.77;98451.66;4940420;28;20486;-71
2023/05/16 09:07:41;;;;;;;13.25;4.90;;;;;;;25.35;39.22;98456.34;4924969;28;20038;-71
2023/05/16 09:10:07;;;;;;;15.40;4.80;;;;;;;25.41;38.90;98454.63;4956513;28;20038;-73
2023/05/16 09:12:33;;;;;;;16.83;4.80;;;;;;;25.39;39.17;98448.69;4956725;28;20031;-72
2023/05/16 09:15:03;;;;;;;11.43;4.25;;;;;;;25.35;39.16;98445.66;4940520;28;20462;-73
2023/05/16 09:17:40;;;;;;;13.38;4.65;;;;;;;25.42;39.24;98459.75;4941187;28;20101;-70
2023/05/16 09:20:13;;;;;;;16.92;4.72;;;;;;;25.57;38.82;98479.94;4924930;28;20050;-73
2023/05/16 09:22:39;;;;;;;12.10;4.22;;;;;;;25.70;38.97;98481.69;4956770;28;20038;-72
2023/05/16 09:25:05;;;;;;;11.95;3.97;;;;;;;25.84;38.63;98480.53;4956474;28;20376;-73
2023/05/16 09:27:30;;;;;;;10.60;4.45;;;;;;;26.12;38.06;98489.88;4940447;28;20506;-74
2023/05/16 09:29:56;;;;;;;9.50;4.13;;;;;;;26.44;38.07;98493.22;4924036;28;20043;-72
2023/05/16 09:32:22;;;;;;;14.13;4.40;;;;;;;26.79;37.53;98500.56;4940451;28;20379;-71
2023/05/16 09:34:48;;;;;;;10.40;4.15;;;;;;;27.16;37.37;98510.31;4974158;28;20042;-76
2023/05/16 09:37:14;;;;;;;12.05;4.07;;;;;;;27.43;36.10;98500.00;4924632;28;20038;-74
2023/05/16 09:39:49;;;;;;;13.98;3.85;;;;;;;27.69;35.95;98489.84;4956590;28;20039;-75
2023/05/16 09:42:15;;;;;;;9.63;3.80;;;;;;;27.80;36.24;98492.53;4955905;28;20126;-74
2023/05/16 09:44:41;;;;;;;9.52;4.00;;;;;;;27.85;35.62;98489.16;4940283;28;20131;-75
2023/05/16 09:47:07;;;;;;;7.80;3.60;;;;;;;27.85;35.25;98482.97;4940371;28;20045;-75
2023/05/16 09:49:32;;;;;;;14.05;3.97;;;;;;;27.90;35.03;98485.78;4956217;28;20035;-77
2023/05/16 09:52:01;;;;;;;11.27;3.88;;;;;;;27.91;34.72;98479.34;4956226;28;20039;-75
2023/05/16 09:54:33;;;;;;;9.00;3.25;;;;;;;27.96;34.50;98471.44;4940276;28;20035;-74
2023/05/16 09:56:59;;;;;;;9.32;2.90;;;;;;;28.12;34.43;98472.56;4939985;28;20486;-74
2023/05/16 09:59:27;;;;;;;12.57;3.40;;;;;;;28.24;34.08;98467.16;4924075;28;20041;-74
2023/05/16 10:01:53;;;;;;;12.43;3.30;;;;;;;28.36;33.67;98469.81;4924672;28;20414;-75
2023/05/16 10:04:19;;;;;;;9.98;2.95;;;;;;;28.50;33.48;98457.72;4939712;28;20039;-75
2023/05/16 10:06:44;;;;;;;9.02;3.10;;;;;;;28.58;33.05;98460.06;4956130;28;20045;-75
2023/05/16 10:09:11;;;;;;;11.00;3.03;;;;;;;28.78;32.76;98454.22;4940079;28;20066;-74
2023/05/16 10:11:38;;;;;;;7.93;2.88;;;;;;;28.92;32.50;98446.66;4940453;28;20490;-74
2023/05/16 10:14:04;;;;;;;10.30;3.20;;;;;;;28.97;32.31;98445.91;4940350;28;20046;-74
2023/05/16 10:16:30;;;;;;;17.02;4.07;;;;;;;28.98;32.37;98445.66;4923984;28;20082;-75
2023/05/16 10:18:55;;;;;;;16.30;3.80;;;;;;;28.98;31.79;98437.63;4923987;28;20078;-74
2023/05/16 10:21:21;;;;;;;14.88;4.13;;;;;;;28.93;32.01;98426.00;4924361;28;20562;-76
2023/05/16 10:23:47;;;;;;;9.18;3.92;;;;;;;28.86;31.82;98426.13;4940097;28;20121;-73
2023/05/16 10:26:13;;;;;;;15.30;4.03;;;;;;;28.90;31.88;98413.03;4939472;28;20125;-74
2023/05/16 10:28:40;;;;;;;11.07;3.97;;;;;;;28.96;31.81;98406.69;4940048;28;20027;-75
2023/05/16 10:31:05;;;;;;;11.98;4.22;;;;;;;29.05;31.54;98406.03;4923878;28;20133;-76
2023/05/16 10:33:31;;;;;;;15.50;5.07;;;;;;;28.92;31.43;98395.59;4939986;28;20130;-75
2023/05/16 10:35:56;;;;;;;18.95;5.00;;;;;;;29.00;31.50;98405.97;4923846;28;20054;-74
2023/05/16 10:38:23;;;;;;;21.50;5.28;;;;;;;28.89;31.44;98401.47;4955718;28;20039;-74
2023/05/16 10:40:48;;;;;;;17.25;4.60;;;;;;;28.77;31.64;98390.81;4924242;28;20077;-75
2023/05/16 10:43:22;;;;;;;13.68;4.35;;;;;;;28.60;31.46;98379.25;4939814;28;20074;-74
2023/05/16 10:45:56;;;;;;;17.90;4.30;;;;;;;28.46;31.68;98384.88;4940097;28;20130;-76
2023/05/16 10:48:37;;;;;;;14.90;4.45;;;;;;;28.29;32.22;98384.06;4956854;28;20066;-75
2023/05/16 10:51:38;;;;;;;12.30;3.83;;;;;;;28.30;32.07;98380.31;4924308;28;20469;-75
2023/05/16 10:54:12;;;;;;;12.40;3.95;;;;;;;28.26;32.35;98371.13;4886397;29;20517;-74
2023/05/16 10:56:37;;;;;;;12.93;3.67;;;;;;;28.18;31.75;98360.78;4866472;29;20040;-75
2023/05/16 10:59:06;;;;;;;11.57;2.88;;;;;;;28.06;31.80;98353.59;4898025;29;20119;-75
2023/05/16 11:01:32;;;;;;;12.68;2.92;;;;;;;27.89;31.75;98345.47;4882579;29;20103;-75
2023/05/16 11:04:00;;;;;;;8.73;2.95;;;;;;;27.69;32.18;98326.31;4881806;29;20036;-75
2023/05/16 11:06:33;;;;;;;9.25;2.78;;;;;;;27.58;32.00;98326.13;4913681;29;20048;-75
2023/05/16 11:11:42;;;;;;;9.38;3.10;;;;;;;27.41;32.63;98331.41;4916078;29;20036;-74
2023/05/16 11:14:07;;;;;;;12.13;3.05;;;;;;;27.37;32.90;98332.94;4900583;29;20087;-77
2023/05/16 11:16:34;;;;;;;7.63;2.70;;;;;;;27.34;32.90;98324.53;4869377;29;20127;-76
2023/05/16 11:19:06;;;;;;;8.68;2.75;;;;;;;27.18;33.23;98315.31;4901024;29;20044;-74
2023/05/16 11:22:10;;;;;;;18.33;2.90;;;;;;;27.12;33.42;98316.25;4885225;29;20443;-78
2023/05/16 11:24:37;;;;;;;7.45;2.83;;;;;;;27.11;33.42;98296.72;4916024;29;20032;-74
2023/05/16 11:27:03;;;;;;;8.73;3.03;;;;;;;27.17;33.47;98297.66;4875322;28;20427;-75
2023/05/16 11:29:35;;;;;;;11.55;3.15;;;;;;;27.23;33.37;98294.00;4927234;28;20045;-74
2023/05/16 11:32:04;;;;;;;6.30;3.00;;;;;;;27.40;33.32;98302.97;4942936;28;20548;-75